createdAt,value
2019-01-30T00:00:07.368Z,0.00
2019-01-30T00:01:07.381Z,0.00
2019-01-30T00:02:07.371Z,0.00
2019-01-30T00:03:07.376Z,0.00
2019-01-30T00:04:07.375Z,0.00
2019-01-30T00:05:07.370Z,0.00
2019-01-30T00:06:07.369Z,0.00
2019-01-30T00:07:07.369Z,0.00
2019-01-30T00:08:07.368Z,0.00
2019-01-30T00:09:07.361Z,0.00
2019-01-30T00:10:07.368Z,0.00
2019-01-30T00:11:07.361Z,0.00
2019-01-30T00:12:09.659Z,0.00
2019-01-30T00:13:07.364Z,0.00
2019-01-30T00:14:07.374Z,0.00
2019-01-30T00:15:07.367Z,0.00
2019-01-30T00:16:07.371Z,0.00
2019-01-30T00:17:07.368Z,0.00
2019-01-30T00:18:07.367Z,0.00
2019-01-30T00:19:07.365Z,0.00
2019-01-30T00:20:07.370Z,0.00
2019-01-30T00:21:07.382Z,0.00
2019-01-30T00:22:07.365Z,0.00
2019-01-30T00:23:07.360Z,0.00
2019-01-30T00:24:07.366Z,0.00
2019-01-30T00:25:07.368Z,0.00
2019-01-30T00:26:07.371Z,0.00
2019-01-30T00:27:07.386Z,0.00
2019-01-30T00:28:07.365Z,0.00
2019-01-30T00:29:07.365Z,0.00
2019-01-30T00:30:07.369Z,0.00
2019-01-30T00:31:07.372Z,0.00
2019-01-30T00:32:07.365Z,0.00
2019-01-30T00:33:07.362Z,0.00
2019-01-30T00:34:07.366Z,0.00
2019-01-30T00:35:07.364Z,0.00
2019-01-30T00:36:07.370Z,0.00
2019-01-30T00:37:07.368Z,0.00
2019-01-30T00:38:07.365Z,0.00
2019-01-30T00:39:07.355Z,0.00
2019-01-30T00:40:07.364Z,0.00
2019-01-30T00:41:07.369Z,0.00
2019-01-30T00:42:07.364Z,0.00
2019-01-30T00:43:07.425Z,0.00
2019-01-30T00:44:07.372Z,0.00
2019-01-30T00:45:07.377Z,0.00
2019-01-30T00:46:07.361Z,0.00
2019-01-30T00:47:15.826Z,0.00
2019-01-30T00:48:07.366Z,0.00
2019-01-30T00:49:07.383Z,0.00
2019-01-30T00:50:07.369Z,0.00
2019-01-30T00:51:07.391Z,0.00
2019-01-30T00:52:07.374Z,0.00
2019-01-30T00:53:07.368Z,0.00
2019-01-30T00:54:07.374Z,0.00
2019-01-30T00:55:07.360Z,0.00
2019-01-30T00:56:07.412Z,0.00
2019-01-30T00:57:07.367Z,0.00
2019-01-30T00:58:07.373Z,0.00
2019-01-30T00:59:07.365Z,0.00
2019-01-30T01:00:14.351Z,0.00
2019-01-30T01:01:07.359Z,0.00
2019-01-30T01:02:07.371Z,0.00
2019-01-30T01:03:07.365Z,0.00
2019-01-30T01:04:07.364Z,0.00
2019-01-30T01:05:07.372Z,0.00
2019-01-30T01:06:07.388Z,0.00
2019-01-30T01:07:07.357Z,0.00
2019-01-30T01:08:07.367Z,0.00
2019-01-30T01:09:07.370Z,0.00
2019-01-30T01:10:07.361Z,0.00
2019-01-30T01:11:07.356Z,0.00
2019-01-30T01:12:07.367Z,0.00
2019-01-30T01:13:07.364Z,0.00
2019-01-30T01:14:07.365Z,0.00
2019-01-30T01:15:07.354Z,0.00
2019-01-30T01:16:07.359Z,0.00
2019-01-30T01:17:07.364Z,0.00
2019-01-30T01:18:07.370Z,0.00
2019-01-30T01:19:07.365Z,0.00
2019-01-30T01:20:07.375Z,0.00
2019-01-30T01:21:07.372Z,0.00
2019-01-30T01:22:07.362Z,0.00
2019-01-30T01:23:07.377Z,0.00
2019-01-30T01:24:07.362Z,0.00
2019-01-30T01:25:07.368Z,0.00
2019-01-30T01:26:07.368Z,0.00
2019-01-30T01:27:07.359Z,0.00
2019-01-30T01:28:07.359Z,0.00
2019-01-30T01:29:07.367Z,0.00
2019-01-30T01:30:07.359Z,0.00
2019-01-30T01:31:07.356Z,0.00
2019-01-30T01:32:07.356Z,0.00
2019-01-30T01:33:07.364Z,0.00
2019-01-30T01:34:07.361Z,0.00
2019-01-30T01:35:07.371Z,0.00
2019-01-30T01:36:07.363Z,0.00
2019-01-30T01:37:07.367Z,0.00
2019-01-30T01:38:07.378Z,0.00
2019-01-30T01:39:07.364Z,0.00
2019-01-30T01:40:07.374Z,0.00
2019-01-30T01:41:07.360Z,0.00
2019-01-30T01:42:07.372Z,0.00
2019-01-30T01:43:07.365Z,0.00
2019-01-30T01:44:07.358Z,0.00
2019-01-30T01:45:07.364Z,0.00
2019-01-30T01:46:07.364Z,0.00
2019-01-30T01:47:07.378Z,0.00
2019-01-30T01:48:07.358Z,0.00
2019-01-30T01:49:07.366Z,0.00
2019-01-30T01:50:07.365Z,0.00
2019-01-30T01:51:07.369Z,0.00
2019-01-30T01:52:07.476Z,0.00
2019-01-30T01:53:07.364Z,0.00
2019-01-30T01:54:07.372Z,0.00
2019-01-30T01:55:07.367Z,0.00
2019-01-30T01:56:07.372Z,0.00
2019-01-30T01:57:07.364Z,0.00
2019-01-30T01:58:07.360Z,0.00
2019-01-30T01:59:07.367Z,0.00
2019-01-30T02:00:07.369Z,0.00
2019-01-30T02:01:07.368Z,0.00
2019-01-30T02:02:07.359Z,0.00
2019-01-30T02:03:07.362Z,0.00
2019-01-30T02:04:07.378Z,0.00
2019-01-30T02:05:07.377Z,0.00
2019-01-30T02:06:07.364Z,0.00
2019-01-30T02:07:07.390Z,0.00
2019-01-30T02:08:07.372Z,0.00
2019-01-30T02:09:07.367Z,0.00
2019-01-30T02:10:07.393Z,0.00
2019-01-30T02:11:07.362Z,0.00
2019-01-30T02:12:07.356Z,0.00
2019-01-30T02:13:07.363Z,0.00
2019-01-30T02:14:07.369Z,0.00
2019-01-30T02:15:07.378Z,0.00
2019-01-30T02:16:07.353Z,0.00
2019-01-30T02:17:07.370Z,0.00
2019-01-30T02:18:08.574Z,0.00
2019-01-30T02:19:07.359Z,0.00
2019-01-30T02:20:07.374Z,0.00
2019-01-30T02:21:07.368Z,0.00
2019-01-30T02:22:07.365Z,0.00
2019-01-30T02:23:07.428Z,0.00
2019-01-30T02:24:07.355Z,0.00
2019-01-30T02:25:07.362Z,0.00
2019-01-30T02:26:07.362Z,0.00
2019-01-30T02:27:07.360Z,0.00
2019-01-30T02:28:07.361Z,0.00
2019-01-30T02:29:07.371Z,0.00
2019-01-30T02:30:07.366Z,0.00
2019-01-30T02:31:07.361Z,0.00
2019-01-30T02:32:07.362Z,0.00
2019-01-30T02:33:07.363Z,0.00
2019-01-30T02:34:07.374Z,0.00
2019-01-30T02:35:07.368Z,0.00
2019-01-30T02:36:07.368Z,0.00
2019-01-30T02:37:07.366Z,0.00
2019-01-30T02:38:07.357Z,0.00
2019-01-30T02:39:07.363Z,0.00
2019-01-30T02:40:07.365Z,0.00
2019-01-30T02:41:07.352Z,0.00
2019-01-30T02:42:07.353Z,0.00
2019-01-30T02:44:07.382Z,0.00
2019-01-30T02:45:07.367Z,0.00
2019-01-30T02:46:07.355Z,0.00
2019-01-30T02:47:07.362Z,0.00
2019-01-30T02:48:07.374Z,0.00
2019-01-30T02:49:07.378Z,0.00
2019-01-30T02:50:07.360Z,0.00
2019-01-30T02:51:07.362Z,0.00
2019-01-30T02:52:07.367Z,0.00
2019-01-30T02:53:07.365Z,0.00
2019-01-30T02:54:07.363Z,0.00
2019-01-30T02:55:07.366Z,0.00
2019-01-30T02:56:07.359Z,0.00
2019-01-30T02:57:07.362Z,0.00
2019-01-30T02:58:07.360Z,0.00
2019-01-30T02:59:07.353Z,0.00
2019-01-30T03:00:07.366Z,0.00
2019-01-30T03:01:07.369Z,0.00
2019-01-30T03:02:07.362Z,0.00
2019-01-30T03:04:07.364Z,0.00
2019-01-30T03:05:07.349Z,0.00
2019-01-30T03:06:07.367Z,0.00
2019-01-30T03:07:07.357Z,0.00
2019-01-30T03:08:07.353Z,0.00
2019-01-30T03:09:07.359Z,0.00
2019-01-30T03:10:07.372Z,0.00
2019-01-30T03:11:07.347Z,0.00
2019-01-30T03:12:07.350Z,0.00
2019-01-30T03:13:07.353Z,0.00
2019-01-30T03:14:07.353Z,0.00
2019-01-30T03:15:07.350Z,0.00
2019-01-30T03:16:07.362Z,0.00
2019-01-30T03:17:07.372Z,0.00
2019-01-30T03:18:07.360Z,0.00
2019-01-30T03:19:07.350Z,0.00
2019-01-30T03:20:07.358Z,0.00
2019-01-30T03:21:07.365Z,0.00
2019-01-30T03:22:07.348Z,0.00
2019-01-30T03:23:07.374Z,0.00
2019-01-30T03:24:07.359Z,0.00
2019-01-30T03:25:07.357Z,0.00
2019-01-30T03:26:07.348Z,0.00
2019-01-30T03:27:07.350Z,0.00
2019-01-30T03:28:07.349Z,0.00
2019-01-30T03:29:07.357Z,0.00
2019-01-30T03:30:07.359Z,0.00
2019-01-30T03:31:17.485Z,0.00
2019-01-30T03:32:07.372Z,0.00
2019-01-30T03:33:07.369Z,0.00
2019-01-30T03:34:07.353Z,0.00
2019-01-30T03:35:07.347Z,0.00
2019-01-30T03:36:07.372Z,0.00
2019-01-30T03:37:07.350Z,0.00
2019-01-30T03:38:07.359Z,0.00
2019-01-30T03:39:07.346Z,0.00
2019-01-30T03:40:07.340Z,0.00
2019-01-30T03:41:07.353Z,0.00
2019-01-30T03:42:07.355Z,0.00
2019-01-30T03:43:07.353Z,0.00
2019-01-30T03:44:07.359Z,0.00
2019-01-30T03:45:07.354Z,0.00
2019-01-30T03:46:07.353Z,0.00
2019-01-30T03:47:07.411Z,0.00
2019-01-30T03:48:07.415Z,0.00
2019-01-30T03:49:07.353Z,0.00
2019-01-30T03:50:07.353Z,0.00
2019-01-30T03:51:07.356Z,0.00
2019-01-30T03:52:07.359Z,0.00
2019-01-30T03:53:07.352Z,0.00
2019-01-30T03:54:07.350Z,0.00
2019-01-30T03:55:07.353Z,0.00
2019-01-30T03:56:07.348Z,0.00
2019-01-30T03:57:07.357Z,0.00
2019-01-30T03:58:07.359Z,0.00
2019-01-30T03:59:07.347Z,0.00
2019-01-30T04:00:07.358Z,0.00
2019-01-30T04:01:07.352Z,0.00
2019-01-30T04:02:07.354Z,0.00
2019-01-30T04:03:07.361Z,0.00
2019-01-30T04:04:07.355Z,0.00
2019-01-30T04:05:07.357Z,0.00
2019-01-30T04:06:07.343Z,0.00
2019-01-30T04:07:07.350Z,0.00
2019-01-30T04:08:07.342Z,0.00
2019-01-30T04:09:07.350Z,0.00
2019-01-30T04:10:07.347Z,0.00
2019-01-30T04:11:07.357Z,0.00
2019-01-30T04:12:07.361Z,0.00
2019-01-30T04:13:07.364Z,0.00
2019-01-30T04:14:07.348Z,0.00
2019-01-30T04:15:07.355Z,0.00
2019-01-30T04:16:07.347Z,0.00
2019-01-30T04:17:07.353Z,0.00
2019-01-30T04:18:07.350Z,0.00
2019-01-30T04:19:07.349Z,0.00
2019-01-30T04:20:07.350Z,0.00
2019-01-30T04:21:07.347Z,0.00
2019-01-30T04:22:07.351Z,0.00
2019-01-30T04:23:07.349Z,0.00
2019-01-30T04:24:07.340Z,0.00
2019-01-30T04:25:07.346Z,0.00
2019-01-30T04:26:07.347Z,0.00
2019-01-30T04:27:07.341Z,0.00
2019-01-30T04:28:07.340Z,0.00
2019-01-30T04:29:07.344Z,0.00
2019-01-30T04:30:07.337Z,0.00
2019-01-30T04:31:07.340Z,0.00
2019-01-30T04:32:07.340Z,0.00
2019-01-30T04:33:07.342Z,0.00
2019-01-30T04:34:07.343Z,0.00
2019-01-30T04:35:07.336Z,0.00
2019-01-30T04:36:07.344Z,0.00
2019-01-30T04:37:07.343Z,0.00
2019-01-30T04:38:07.340Z,0.00
2019-01-30T04:39:07.335Z,0.00
2019-01-30T04:40:07.346Z,0.00
2019-01-30T04:41:07.343Z,0.00
2019-01-30T04:42:07.347Z,0.00
2019-01-30T04:43:07.348Z,0.00
2019-01-30T04:44:07.344Z,0.00
2019-01-30T04:45:07.337Z,0.00
2019-01-30T04:46:07.343Z,0.00
2019-01-30T04:47:07.340Z,0.00
2019-01-30T04:48:07.344Z,0.00
2019-01-30T04:49:07.343Z,0.00
2019-01-30T04:50:07.337Z,0.00
2019-01-30T04:51:07.341Z,0.00
2019-01-30T04:52:07.338Z,0.00
2019-01-30T04:53:07.337Z,0.00
2019-01-30T04:54:07.425Z,0.00
2019-01-30T04:55:07.331Z,0.00
2019-01-30T04:56:07.341Z,0.00
2019-01-30T04:57:07.346Z,0.00
2019-01-30T04:58:07.334Z,0.00
2019-01-30T04:59:07.340Z,0.00
2019-01-30T05:00:07.337Z,0.00
2019-01-30T05:01:07.355Z,0.00
2019-01-30T05:02:07.342Z,0.00
2019-01-30T05:03:07.343Z,0.00
2019-01-30T05:04:07.337Z,0.00
2019-01-30T05:05:07.336Z,0.00
2019-01-30T05:06:07.357Z,0.00
2019-01-30T05:07:07.333Z,0.00
2019-01-30T05:08:07.340Z,0.00
2019-01-30T05:09:07.334Z,0.00
2019-01-30T05:10:07.339Z,0.00
2019-01-30T05:11:07.335Z,0.00
2019-01-30T05:12:07.340Z,0.00
2019-01-30T05:13:07.338Z,0.00
2019-01-30T05:14:07.347Z,0.00
2019-01-30T05:15:07.334Z,0.00
2019-01-30T05:16:07.344Z,0.00
2019-01-30T05:17:07.337Z,0.00
2019-01-30T05:18:07.343Z,0.00
2019-01-30T05:19:07.331Z,0.00
2019-01-30T05:20:09.621Z,0.00
2019-01-30T05:21:07.395Z,0.00
2019-01-30T05:22:07.334Z,0.00
2019-01-30T05:23:07.333Z,0.00
2019-01-30T05:24:07.334Z,0.00
2019-01-30T05:25:07.327Z,0.00
2019-01-30T05:26:07.349Z,0.00
2019-01-30T05:27:07.331Z,0.00
2019-01-30T05:28:07.331Z,0.00
2019-01-30T05:29:07.334Z,0.00
2019-01-30T05:30:07.335Z,0.00
2019-01-30T05:31:07.331Z,0.00
2019-01-30T05:32:07.330Z,0.00
2019-01-30T05:33:07.341Z,0.00
2019-01-30T05:34:07.320Z,0.00
2019-01-30T05:35:07.331Z,0.00
2019-01-30T05:36:07.321Z,0.00
2019-01-30T05:37:07.330Z,0.00
2019-01-30T05:38:07.324Z,0.00
2019-01-30T05:39:07.327Z,0.00
2019-01-30T05:40:07.339Z,0.00
2019-01-30T05:41:07.343Z,0.00
2019-01-30T05:42:07.328Z,0.00
2019-01-30T05:43:07.324Z,0.00
2019-01-30T05:44:07.331Z,0.00
2019-01-30T05:45:07.325Z,0.00
2019-01-30T05:46:07.327Z,0.00
2019-01-30T05:47:07.328Z,0.00
2019-01-30T05:48:07.321Z,0.00
2019-01-30T05:49:07.321Z,0.00
2019-01-30T05:50:07.325Z,0.00
2019-01-30T05:51:07.321Z,0.00
2019-01-30T05:52:07.321Z,0.00
2019-01-30T05:53:07.342Z,0.00
2019-01-30T05:54:07.327Z,0.00
2019-01-30T05:55:07.321Z,0.00
2019-01-30T05:56:07.337Z,0.00
2019-01-30T05:57:07.323Z,0.00
2019-01-30T05:58:07.324Z,0.00
2019-01-30T05:59:07.321Z,0.00
2019-01-30T06:00:07.502Z,0.00
2019-01-30T06:01:07.326Z,0.00
2019-01-30T06:02:12.222Z,0.00
2019-01-30T06:03:07.320Z,0.00
2019-01-30T06:04:07.321Z,0.00
2019-01-30T06:05:07.326Z,0.00
2019-01-30T06:06:07.321Z,0.00
2019-01-30T06:07:07.323Z,0.00
2019-01-30T06:09:07.316Z,0.00
2019-01-30T06:10:07.324Z,0.00
2019-01-30T06:11:07.320Z,0.00
2019-01-30T06:12:07.338Z,0.00
2019-01-30T06:13:07.323Z,0.00
2019-01-30T06:14:07.344Z,0.00
2019-01-30T06:15:07.311Z,0.00
2019-01-30T06:16:07.317Z,0.00
2019-01-30T06:17:09.616Z,0.00
2019-01-30T06:18:07.316Z,0.00
2019-01-30T06:19:07.305Z,0.00
2019-01-30T06:22:07.312Z,0.00
2019-01-30T06:23:07.312Z,0.00
2019-01-30T06:25:07.316Z,0.00
2019-01-30T06:26:07.313Z,0.00
2019-01-30T06:27:07.331Z,0.00
2019-01-30T06:28:07.314Z,0.00
2019-01-30T06:29:07.312Z,0.00
2019-01-30T06:30:07.307Z,0.00
2019-01-30T06:31:07.310Z,0.00
2019-01-30T06:33:07.306Z,0.00
2019-01-30T06:34:07.310Z,0.00
2019-01-30T06:35:07.304Z,0.00
2019-01-30T06:36:07.416Z,0.00
2019-01-30T06:37:07.333Z,0.00
2019-01-30T06:38:07.309Z,0.00
2019-01-30T06:39:07.312Z,0.00
2019-01-30T06:40:07.307Z,0.00
2019-01-30T06:41:07.321Z,0.00
2019-01-30T06:42:07.301Z,0.00
2019-01-30T06:43:07.308Z,0.00
2019-01-30T06:44:07.302Z,0.00
2019-01-30T06:45:07.307Z,0.00
2019-01-30T06:46:07.305Z,0.00
2019-01-30T06:47:07.330Z,0.00
2019-01-30T06:48:07.308Z,0.00
2019-01-30T06:49:07.308Z,0.00
2019-01-30T06:50:07.296Z,0.00
2019-01-30T06:51:07.347Z,0.00
2019-01-30T06:52:07.304Z,0.00
2019-01-30T06:53:07.310Z,0.00
2019-01-30T06:54:07.295Z,0.00
2019-01-30T06:55:07.305Z,0.00
2019-01-30T06:56:07.290Z,0.00
2019-01-30T06:57:07.299Z,0.00
2019-01-30T06:58:07.309Z,0.00
2019-01-30T07:00:07.306Z,0.00
2019-01-30T07:01:07.321Z,0.00
2019-01-30T07:02:07.301Z,0.00
2019-01-30T07:03:07.302Z,0.00
2019-01-30T07:04:07.306Z,0.00
2019-01-30T07:05:07.317Z,0.00
2019-01-30T07:06:07.884Z,0.00
2019-01-30T07:07:07.312Z,0.00
2019-01-30T07:08:07.309Z,0.00
2019-01-30T07:09:07.291Z,0.00
2019-01-30T07:10:07.300Z,5.63
2019-01-30T07:11:10.800Z,5.63
2019-01-30T07:12:07.291Z,5.63
2019-01-30T07:13:07.305Z,5.63
2019-01-30T07:14:07.293Z,5.63
2019-01-30T07:15:07.311Z,5.63
2019-01-30T07:16:07.295Z,5.63
2019-01-30T07:17:07.295Z,5.63
2019-01-30T07:18:07.341Z,5.63
2019-01-30T07:19:07.298Z,5.63
2019-01-30T07:20:07.311Z,11.25
2019-01-30T07:21:07.317Z,11.25
2019-01-30T07:22:07.287Z,11.25
2019-01-30T07:23:07.285Z,11.25
2019-01-30T07:24:07.295Z,11.25
2019-01-30T07:25:07.286Z,11.25
2019-01-30T07:26:07.305Z,16.88
2019-01-30T07:27:07.295Z,16.88
2019-01-30T07:28:07.301Z,16.88
2019-01-30T07:29:07.289Z,16.88
2019-01-30T07:30:07.286Z,22.50
2019-01-30T07:31:07.289Z,22.50
2019-01-30T07:32:07.299Z,22.50
2019-01-30T07:33:07.286Z,22.50
2019-01-30T07:34:07.306Z,22.50
2019-01-30T07:35:07.293Z,28.13
2019-01-30T07:36:07.288Z,28.13
2019-01-30T07:37:07.292Z,28.13
2019-01-30T07:38:07.286Z,28.13
2019-01-30T07:39:07.290Z,28.13
2019-01-30T07:40:07.300Z,33.75
2019-01-30T07:41:07.289Z,33.75
2019-01-30T07:42:07.293Z,33.75
2019-01-30T07:43:07.290Z,39.38
2019-01-30T07:44:07.305Z,39.38
2019-01-30T07:45:07.286Z,45.00
2019-01-30T07:46:07.296Z,50.63
2019-01-30T07:47:07.287Z,50.63
2019-01-30T07:48:07.291Z,50.63
2019-01-30T07:49:07.305Z,56.25
2019-01-30T07:50:07.305Z,56.25
2019-01-30T07:51:07.302Z,61.88
2019-01-30T07:52:07.289Z,61.88
2019-01-30T07:53:07.299Z,67.50
2019-01-30T07:54:07.281Z,67.50
2019-01-30T07:55:07.281Z,67.50
2019-01-30T07:56:07.328Z,73.13
2019-01-30T07:57:07.299Z,73.13
2019-01-30T07:58:07.291Z,73.13
2019-01-30T07:59:07.285Z,73.13
2019-01-30T08:00:07.314Z,78.75
2019-01-30T08:01:07.411Z,78.75
2019-01-30T08:02:07.898Z,78.75
2019-01-30T08:03:07.283Z,84.38
2019-01-30T08:04:07.289Z,84.38
2019-01-30T08:05:07.300Z,90.00
2019-01-30T08:06:07.429Z,90.00
2019-01-30T08:07:07.358Z,95.63
2019-01-30T08:08:07.283Z,95.63
2019-01-30T08:09:07.300Z,101.25
2019-01-30T08:10:07.299Z,101.25
2019-01-30T08:11:07.572Z,106.88
2019-01-30T08:12:07.303Z,112.50
2019-01-30T08:13:07.293Z,118.13
2019-01-30T08:14:07.294Z,123.75
2019-01-30T08:15:07.290Z,129.38
2019-01-30T08:16:07.297Z,135.00
2019-01-30T08:17:07.297Z,140.63
2019-01-30T08:18:07.293Z,146.25
2019-01-30T08:19:07.293Z,151.88
2019-01-30T08:20:07.298Z,151.88
2019-01-30T08:21:07.295Z,163.13
2019-01-30T08:22:07.296Z,163.13
2019-01-30T08:23:07.477Z,168.75
2019-01-30T08:24:07.500Z,163.13
2019-01-30T08:25:07.521Z,157.50
2019-01-30T08:26:07.424Z,157.50
2019-01-30T08:28:07.302Z,151.88
2019-01-30T08:29:07.785Z,151.88
2019-01-30T08:30:07.704Z,151.88
2019-01-30T08:31:07.391Z,151.88
2019-01-30T08:32:07.604Z,151.88
2019-01-30T08:33:07.431Z,151.88
2019-01-30T08:34:07.305Z,151.88
2019-01-30T08:35:07.298Z,157.50
2019-01-30T08:36:07.307Z,157.50
2019-01-30T08:37:07.307Z,157.50
2019-01-30T08:38:07.306Z,157.50
2019-01-30T08:39:07.312Z,163.13
2019-01-30T08:40:07.305Z,163.13
2019-01-30T08:41:07.309Z,168.75
2019-01-30T08:43:07.322Z,168.75
2019-01-30T08:44:07.327Z,174.38
2019-01-30T08:46:07.315Z,174.38
2019-01-30T08:47:07.330Z,168.75
2019-01-30T08:48:07.322Z,174.38
2019-01-30T08:49:07.334Z,174.38
2019-01-30T08:50:07.322Z,174.38
2019-01-30T08:51:07.316Z,180.00
2019-01-30T08:52:07.322Z,180.00
2019-01-30T08:53:07.316Z,185.63
2019-01-30T08:54:07.324Z,185.63
2019-01-30T08:55:07.323Z,185.63
2019-01-30T08:56:07.327Z,191.25
2019-01-30T08:57:07.330Z,196.88
2019-01-30T08:58:07.341Z,196.88
2019-01-30T08:59:07.338Z,202.50
2019-01-30T09:00:07.335Z,202.50
2019-01-30T09:01:07.341Z,202.50
2019-01-30T09:02:07.368Z,208.13
2019-01-30T09:03:14.429Z,208.13
2019-01-30T09:04:07.338Z,208.13
2019-01-30T09:05:07.344Z,208.13
2019-01-30T09:06:07.340Z,208.13
2019-01-30T09:07:07.362Z,208.13
2019-01-30T09:08:08.911Z,213.75
2019-01-30T09:09:07.344Z,219.38
2019-01-30T09:10:07.366Z,219.38
2019-01-30T09:11:07.359Z,225.00
2019-01-30T09:12:07.356Z,230.63
2019-01-30T09:13:07.350Z,241.88
2019-01-30T09:14:07.342Z,253.13
2019-01-30T09:15:07.351Z,258.75
2019-01-30T09:16:07.348Z,258.75
2019-01-30T09:17:08.779Z,264.38
2019-01-30T09:18:07.360Z,264.38
2019-01-30T09:19:07.365Z,270.00
2019-01-30T09:20:07.367Z,275.63
2019-01-30T09:21:07.372Z,275.63
2019-01-30T09:22:07.378Z,275.63
2019-01-30T09:23:07.376Z,275.63
2019-01-30T09:24:07.373Z,275.63
2019-01-30T09:25:07.377Z,270.00
2019-01-30T09:26:07.373Z,264.38
2019-01-30T09:27:07.368Z,258.75
2019-01-30T09:28:07.370Z,253.13
2019-01-30T09:29:07.380Z,253.13
2019-01-30T09:30:07.376Z,247.50
2019-01-30T09:32:07.388Z,230.63
2019-01-30T09:33:07.421Z,230.63
2019-01-30T09:34:07.395Z,230.63
2019-01-30T09:35:07.384Z,219.38
2019-01-30T09:36:07.401Z,225.00
2019-01-30T09:37:07.427Z,213.75
2019-01-30T09:38:07.419Z,213.75
2019-01-30T09:39:07.417Z,208.13
2019-01-30T09:40:07.427Z,208.13
2019-01-30T09:41:07.421Z,208.13
2019-01-30T09:42:07.398Z,208.13
2019-01-30T09:43:07.414Z,219.38
2019-01-30T09:44:07.424Z,213.75
2019-01-30T09:45:09.881Z,219.38
2019-01-30T09:46:07.403Z,219.38
2019-01-30T09:47:07.418Z,219.38
2019-01-30T09:48:07.416Z,225.00
2019-01-30T09:49:07.430Z,230.63
2019-01-30T09:50:07.457Z,236.25
2019-01-30T09:51:07.407Z,236.25
2019-01-30T09:52:07.410Z,241.88
2019-01-30T09:53:07.414Z,236.25
2019-01-30T09:54:07.418Z,241.88
2019-01-30T09:55:07.445Z,236.25
2019-01-30T09:56:07.481Z,236.25
2019-01-30T09:57:07.429Z,236.25
2019-01-30T09:58:07.446Z,230.63
2019-01-30T09:59:07.437Z,225.00
2019-01-30T10:01:07.439Z,213.75
2019-01-30T10:02:07.440Z,208.13
2019-01-30T10:03:07.452Z,196.88
2019-01-30T10:04:07.453Z,191.25
2019-01-30T10:05:07.448Z,191.25
2019-01-30T10:06:07.452Z,185.63
2019-01-30T10:07:07.453Z,185.63
2019-01-30T10:08:07.453Z,180.00
2019-01-30T10:09:07.453Z,185.63
2019-01-30T10:10:07.450Z,185.63
2019-01-30T10:11:07.466Z,185.63
2019-01-30T10:12:07.580Z,180.00
2019-01-30T10:13:07.469Z,180.00
2019-01-30T10:14:07.459Z,180.00
2019-01-30T10:15:07.466Z,174.38
2019-01-30T10:16:07.459Z,174.38
2019-01-30T10:17:07.468Z,180.00
2019-01-30T10:18:07.479Z,168.75
2019-01-30T10:19:07.475Z,163.13
2019-01-30T10:20:07.479Z,157.50
2019-01-30T10:21:07.490Z,146.25
2019-01-30T10:22:07.476Z,135.00
2019-01-30T10:23:07.485Z,129.38
2019-01-30T10:24:07.501Z,123.75
2019-01-30T10:25:07.487Z,118.13
2019-01-30T10:26:07.478Z,112.50
2019-01-30T10:27:07.872Z,112.50
2019-01-30T10:28:16.206Z,112.50
2019-01-30T10:29:07.494Z,112.50
2019-01-30T10:30:07.490Z,123.75
2019-01-30T10:31:07.501Z,123.75
2019-01-30T10:32:07.488Z,129.38
2019-01-30T10:33:07.494Z,129.38
2019-01-30T10:34:07.493Z,123.75
2019-01-30T10:35:07.507Z,123.75
2019-01-30T10:36:07.501Z,123.75
2019-01-30T10:37:07.513Z,123.75
2019-01-30T10:38:07.649Z,129.38
2019-01-30T10:39:07.503Z,129.38
2019-01-30T10:40:07.521Z,129.38
2019-01-30T10:41:07.517Z,129.38
2019-01-30T10:42:07.507Z,123.75
2019-01-30T10:43:07.527Z,123.75
2019-01-30T10:44:07.515Z,118.13
2019-01-30T10:45:07.517Z,118.13
2019-01-30T10:46:07.516Z,118.13
2019-01-30T10:47:07.530Z,118.13
2019-01-30T10:48:07.523Z,118.13
2019-01-30T10:49:07.523Z,123.75
2019-01-30T10:50:07.517Z,123.75
2019-01-30T10:51:07.582Z,118.13
2019-01-30T10:52:07.526Z,118.13
2019-01-30T10:53:07.531Z,112.50
2019-01-30T10:54:07.523Z,112.50
2019-01-30T10:55:07.542Z,101.25
2019-01-30T10:56:07.535Z,90.00
2019-01-30T10:57:07.527Z,90.00
2019-01-30T10:58:07.535Z,84.38
2019-01-30T10:59:07.568Z,78.75
2019-01-30T11:00:07.532Z,78.75
2019-01-30T11:01:07.540Z,78.75
2019-01-30T11:02:07.544Z,78.75
2019-01-30T11:03:07.546Z,78.75
2019-01-30T11:04:07.548Z,78.75
2019-01-30T11:05:07.548Z,90.00
2019-01-30T11:06:07.549Z,90.00
2019-01-30T11:07:07.549Z,90.00
2019-01-30T11:08:07.554Z,95.63
2019-01-30T11:09:07.571Z,95.63
2019-01-30T11:10:07.548Z,95.63
2019-01-30T11:11:08.360Z,95.63
2019-01-30T11:12:07.558Z,90.00
2019-01-30T11:13:07.559Z,84.38
2019-01-30T11:14:07.558Z,84.38
2019-01-30T11:15:07.584Z,84.38
2019-01-30T11:16:07.556Z,78.75
2019-01-30T11:17:08.687Z,78.75
2019-01-30T11:18:07.621Z,78.75
2019-01-30T11:19:07.560Z,78.75
2019-01-30T11:20:07.570Z,84.38
2019-01-30T11:21:07.567Z,90.00
2019-01-30T11:22:07.563Z,84.38
2019-01-30T11:23:07.569Z,84.38
2019-01-30T11:24:07.567Z,95.63
2019-01-30T11:25:07.570Z,90.00
2019-01-30T11:26:07.570Z,90.00
2019-01-30T11:27:07.566Z,90.00
2019-01-30T11:28:07.568Z,90.00
2019-01-30T11:29:07.570Z,90.00
2019-01-30T11:30:07.580Z,90.00
2019-01-30T11:31:07.582Z,95.63
2019-01-30T11:32:07.567Z,90.00
2019-01-30T11:33:07.574Z,90.00
2019-01-30T11:34:08.064Z,95.63
2019-01-30T11:35:07.572Z,90.00
2019-01-30T11:36:07.572Z,95.63
2019-01-30T11:37:07.593Z,95.63
2019-01-30T11:38:08.982Z,101.25
2019-01-30T11:39:07.579Z,106.88
2019-01-30T11:40:07.580Z,101.25
2019-01-30T11:41:07.576Z,101.25
2019-01-30T11:42:07.586Z,106.88
2019-01-30T11:43:07.580Z,106.88
2019-01-30T11:44:07.584Z,112.50
2019-01-30T11:45:07.584Z,118.13
2019-01-30T11:46:07.578Z,129.38
2019-01-30T11:47:07.587Z,129.38
2019-01-30T11:48:07.582Z,135.00
2019-01-30T11:49:07.641Z,135.00
2019-01-30T11:50:07.586Z,140.63
2019-01-30T11:51:07.623Z,146.25
2019-01-30T11:52:07.598Z,140.63
2019-01-30T11:53:07.602Z,146.25
2019-01-30T11:54:07.593Z,146.25
2019-01-30T11:55:07.591Z,146.25
2019-01-30T11:56:07.600Z,146.25
2019-01-30T11:57:07.598Z,151.88
2019-01-30T11:58:07.596Z,151.88
2019-01-30T11:59:07.602Z,157.50
2019-01-30T12:00:07.613Z,168.75
2019-01-30T12:01:07.609Z,163.13
2019-01-30T12:02:07.596Z,168.75
2019-01-30T12:03:07.611Z,168.75
2019-01-30T12:04:17.485Z,157.50
2019-01-30T12:05:07.604Z,151.88
2019-01-30T12:06:07.596Z,163.13
2019-01-30T12:07:07.600Z,151.88
2019-01-30T12:08:07.604Z,146.25
2019-01-30T12:09:07.637Z,151.88
2019-01-30T12:10:07.604Z,146.25
2019-01-30T12:11:07.606Z,140.63
2019-01-30T12:12:07.622Z,135.00
2019-01-30T12:13:07.611Z,123.75
2019-01-30T12:14:07.702Z,129.38
2019-01-30T12:15:07.625Z,129.38
2019-01-30T12:16:07.613Z,118.13
2019-01-30T12:17:07.618Z,112.50
2019-01-30T12:18:07.613Z,112.50
2019-01-30T12:19:07.628Z,106.88
2019-01-30T12:20:07.625Z,106.88
2019-01-30T12:21:07.622Z,106.88
2019-01-30T12:22:07.642Z,101.25
2019-01-30T12:24:07.622Z,106.88
2019-01-30T12:25:07.661Z,112.50
2019-01-30T12:26:07.630Z,112.50
2019-01-30T12:27:07.630Z,123.75
2019-01-30T12:29:07.635Z,112.50
2019-01-30T12:30:07.635Z,112.50
2019-01-30T12:31:07.647Z,112.50
2019-01-30T12:32:07.633Z,106.88
2019-01-30T12:33:07.638Z,106.88
2019-01-30T12:34:07.646Z,101.25
2019-01-30T12:35:07.633Z,101.25
2019-01-30T12:36:07.631Z,101.25
2019-01-30T12:37:07.638Z,101.25
2019-01-30T12:38:07.649Z,101.25
2019-01-30T12:39:07.715Z,106.88
2019-01-30T12:40:07.663Z,106.88
2019-01-30T12:41:07.645Z,101.25
2019-01-30T12:42:07.645Z,101.25
2019-01-30T12:43:07.656Z,90.00
2019-01-30T12:44:07.692Z,84.38
2019-01-30T12:45:07.650Z,78.75
2019-01-30T12:46:07.666Z,78.75
2019-01-30T12:47:07.651Z,78.75
2019-01-30T12:48:10.324Z,73.13
2019-01-30T12:49:07.669Z,73.13
2019-01-30T12:50:07.671Z,78.75
2019-01-30T12:51:07.651Z,73.13
2019-01-30T12:52:07.659Z,73.13
2019-01-30T12:53:07.655Z,73.13
2019-01-30T12:54:07.654Z,73.13
2019-01-30T12:55:07.661Z,73.13
2019-01-30T12:56:07.671Z,73.13
2019-01-30T12:57:07.761Z,73.13
2019-01-30T12:58:07.658Z,73.13
2019-01-30T12:59:07.819Z,73.13
2019-01-30T13:00:07.687Z,78.75
2019-01-30T13:01:07.669Z,73.13
2019-01-30T13:02:07.659Z,73.13
2019-01-30T13:03:07.667Z,73.13
2019-01-30T13:04:07.676Z,73.13
2019-01-30T13:05:07.667Z,67.50
2019-01-30T13:06:07.667Z,67.50
2019-01-30T13:07:07.680Z,67.50
2019-01-30T13:08:07.671Z,61.88
2019-01-30T13:09:07.675Z,61.88
2019-01-30T13:10:07.842Z,56.25
2019-01-30T13:11:07.688Z,56.25
2019-01-30T13:12:07.672Z,56.25
2019-01-30T13:13:07.685Z,56.25
2019-01-30T13:14:07.798Z,56.25